createdAt,value
2023-03-30T00:01:00.965Z,8.02
2023-03-30T00:03:28.424Z,9.48
2023-03-30T00:05:56.784Z,9.00
2023-03-30T00:08:28.873Z,8.98
2023-03-30T00:11:11.871Z,9.55
2023-03-30T00:13:40.148Z,8.88
2023-03-30T00:16:09.648Z,8.45
2023-03-30T00:18:37.073Z,8.98
2023-03-30T00:21:04.832Z,9.10
2023-03-30T00:23:32.761Z,9.10
2023-03-30T00:26:00.698Z,8.00
2023-03-30T00:28:30.697Z,8.88
2023-03-30T00:30:57.912Z,8.73
2023-03-30T00:33:37.252Z,8.25
2023-03-30T00:36:11.625Z,7.70
2023-03-30T00:38:38.518Z,8.60
2023-03-30T00:41:05.668Z,8.30
2023-03-30T00:43:33.660Z,7.70
2023-03-30T00:46:00.555Z,7.93
2023-03-30T00:48:34.643Z,8.18
2023-03-30T00:51:10.514Z,7.93
2023-03-30T00:53:43.098Z,7.70
2023-03-30T00:56:13.675Z,8.55
2023-03-30T00:58:42.378Z,6.63
2023-03-30T01:01:14.213Z,8.50
2023-03-30T01:03:45.791Z,8.18
2023-03-30T01:06:14.272Z,8.13
2023-03-30T01:08:42.665Z,7.63
2023-03-30T01:11:09.578Z,7.10
2023-03-30T01:13:39.923Z,7.22
2023-03-30T01:16:07.927Z,8.48
2023-03-30T01:19:16.270Z,7.47
2023-03-30T01:22:17.376Z,8.70
2023-03-30T01:25:11.459Z,8.45
2023-03-30T01:28:11.205Z,8.63
2023-03-30T01:31:06.068Z,8.20
2023-03-30T01:33:56.773Z,7.40
2023-03-30T01:36:48.594Z,6.80
2023-03-30T01:39:24.632Z,7.97
2023-03-30T01:42:12.904Z,6.35
2023-03-30T01:44:57.762Z,7.32
2023-03-30T01:47:42.529Z,7.05
2023-03-30T01:50:12.850Z,7.78
2023-03-30T01:52:53.901Z,7.28
2023-03-30T01:55:28.960Z,7.05
2023-03-30T01:58:10.909Z,6.90
2023-03-30T02:00:41.228Z,7.47
2023-03-30T02:03:13.969Z,7.15
2023-03-30T02:05:42.968Z,6.80
2023-03-30T02:08:15.524Z,7.82
2023-03-30T02:10:45.934Z,7.60
2023-03-30T02:13:14.684Z,7.45
2023-03-30T02:15:45.749Z,6.35
2023-03-30T02:18:12.771Z,6.53
2023-03-30T02:20:39.784Z,7.80
2023-03-30T02:23:07.641Z,7.82
2023-03-30T02:25:38.537Z,7.60
2023-03-30T02:28:07.726Z,6.78
2023-03-30T02:30:39.153Z,7.80
2023-03-30T02:33:07.514Z,7.40
2023-03-30T02:36:01.116Z,8.23
2023-03-30T02:38:46.707Z,6.13
2023-03-30T02:41:42.455Z,6.22
2023-03-30T02:44:27.558Z,6.75
2023-03-30T02:47:14.578Z,7.60
2023-03-30T02:50:01.656Z,7.18
2023-03-30T02:52:50.007Z,7.38
2023-03-30T02:55:35.432Z,6.53
2023-03-30T02:58:17.010Z,6.30
2023-03-30T03:00:57.433Z,7.25
2023-03-30T03:03:40.394Z,6.57
2023-03-30T03:06:09.436Z,7.25
2023-03-30T03:08:39.763Z,7.10
2023-03-30T03:11:07.961Z,6.65
2023-03-30T03:13:39.095Z,7.18
2023-03-30T03:16:08.105Z,7.18
2023-03-30T03:18:41.938Z,7.50
2023-03-30T03:21:10.380Z,7.22
2023-03-30T03:23:37.778Z,6.82
2023-03-30T03:26:04.754Z,6.28
2023-03-30T03:28:31.861Z,8.18
2023-03-30T03:30:59.955Z,7.30
2023-03-30T03:33:27.745Z,6.70
2023-03-30T03:36:00.403Z,8.00
2023-03-30T03:38:28.424Z,7.40
2023-03-30T03:40:57.847Z,7.20
2023-03-30T03:43:25.729Z,6.57
2023-03-30T03:45:53.219Z,7.20
2023-03-30T03:48:22.549Z,7.32
2023-03-30T03:50:59.483Z,6.75
2023-03-30T03:53:27.987Z,6.88
2023-03-30T03:55:55.480Z,6.70
2023-03-30T03:58:23.266Z,6.60
2023-03-30T04:00:50.687Z,6.20
2023-03-30T04:03:18.785Z,6.25
2023-03-30T04:05:45.863Z,7.70
2023-03-30T04:08:12.612Z,7.72
2023-03-30T04:10:41.446Z,6.78
2023-03-30T04:13:08.370Z,7.65
2023-03-30T04:15:35.436Z,8.90
2023-03-30T04:18:02.418Z,7.28
2023-03-30T04:20:30.016Z,7.03
2023-03-30T04:22:57.282Z,7.22
2023-03-30T04:25:29.346Z,7.75
2023-03-30T04:27:57.217Z,6.47
2023-03-30T04:30:24.360Z,7.97
2023-03-30T04:33:02.819Z,8.35
2023-03-30T04:35:33.828Z,7.85
2023-03-30T04:38:02.168Z,8.35
2023-03-30T04:40:29.506Z,7.45
2023-03-30T04:43:02.309Z,6.47
2023-03-30T04:45:30.746Z,7.47
2023-03-30T04:47:57.706Z,8.35
2023-03-30T04:50:24.609Z,7.10
2023-03-30T04:52:51.483Z,7.97
2023-03-30T04:55:18.325Z,7.85
2023-03-30T04:57:45.095Z,9.45
2023-03-30T05:00:13.740Z,7.40
2023-03-30T05:02:41.057Z,8.05
2023-03-30T05:05:08.566Z,8.10
2023-03-30T05:07:35.327Z,7.72
2023-03-30T05:10:02.092Z,9.25
2023-03-30T05:12:28.914Z,8.25
2023-03-30T05:14:55.696Z,7.63
2023-03-30T05:17:22.587Z,7.35
2023-03-30T05:19:49.353Z,6.97
2023-03-30T05:22:16.410Z,8.07
2023-03-30T05:24:43.184Z,7.20
2023-03-30T05:27:09.997Z,8.63
2023-03-30T05:29:36.818Z,7.97
2023-03-30T05:32:03.633Z,10.40
2023-03-30T05:34:30.491Z,8.30
2023-03-30T05:36:57.322Z,8.05
2023-03-30T05:39:24.821Z,9.02
2023-03-30T05:41:51.650Z,9.75
2023-03-30T05:44:20.598Z,6.90
2023-03-30T05:46:48.877Z,8.40
2023-03-30T05:49:15.706Z,8.73
2023-03-30T05:51:42.471Z,7.90
2023-03-30T05:54:12.686Z,8.20
2023-03-30T05:56:40.732Z,8.35
2023-03-30T05:59:07.919Z,8.45
2023-03-30T06:01:34.967Z,8.02
2023-03-30T06:04:01.905Z,8.18
2023-03-30T06:06:28.768Z,9.10
2023-03-30T06:08:56.046Z,8.20
2023-03-30T06:11:22.987Z,8.02
2023-03-30T06:13:49.719Z,9.18
2023-03-30T06:16:17.010Z,7.88
2023-03-30T06:18:44.050Z,8.00
2023-03-30T06:21:11.748Z,7.88
2023-03-30T06:23:40.851Z,8.15
2023-03-30T06:26:07.837Z,8.80
2023-03-30T06:28:34.758Z,8.35
2023-03-30T06:31:06.978Z,7.90
2023-03-30T06:33:33.794Z,8.55
2023-03-30T06:36:00.668Z,8.02
2023-03-30T06:38:27.685Z,8.30
2023-03-30T06:40:54.542Z,8.43
2023-03-30T06:43:25.923Z,8.80
2023-03-30T06:45:54.987Z,7.78
2023-03-30T06:48:24.046Z,8.93
2023-03-30T06:50:52.180Z,7.85
2023-03-30T06:53:20.035Z,6.90
2023-03-30T06:55:51.976Z,8.02
2023-03-30T06:58:19.219Z,9.10
2023-03-30T07:00:46.339Z,9.00
2023-03-30T07:03:13.142Z,7.47
2023-03-30T07:05:40.433Z,8.55
2023-03-30T07:08:08.110Z,8.10
2023-03-30T07:10:34.928Z,8.57
2023-03-30T07:13:01.799Z,8.10
2023-03-30T07:15:28.572Z,8.05
2023-03-30T07:17:55.879Z,9.00
2023-03-30T07:20:22.738Z,8.75
2023-03-30T07:22:49.628Z,8.85
2023-03-30T07:25:16.514Z,8.85
2023-03-30T07:27:43.477Z,8.38
2023-03-30T07:30:21.441Z,8.68
2023-03-30T07:32:54.396Z,7.75
2023-03-30T07:35:22.732Z,8.25
2023-03-30T07:37:50.941Z,7.60
2023-03-30T07:40:18.772Z,8.60
2023-03-30T07:42:45.647Z,7.72
2023-03-30T07:45:15.603Z,7.80
2023-03-30T07:47:43.318Z,8.52
2023-03-30T07:50:10.351Z,8.88
2023-03-30T07:52:37.923Z,8.43
2023-03-30T07:55:05.036Z,8.50
2023-03-30T07:57:32.169Z,7.38
2023-03-30T07:59:59.080Z,8.40
2023-03-30T08:02:25.935Z,8.20
2023-03-30T08:04:53.125Z,8.25
2023-03-30T08:07:20.096Z,7.95
2023-03-30T08:09:46.968Z,7.30
2023-03-30T08:12:13.726Z,8.02
2023-03-30T08:14:40.604Z,7.40
2023-03-30T08:17:07.709Z,8.68
2023-03-30T08:19:34.538Z,8.15
2023-03-30T08:22:02.135Z,8.18
2023-03-30T08:24:28.992Z,8.10
2023-03-30T08:26:55.949Z,7.55
2023-03-30T08:29:22.759Z,8.55
2023-03-30T08:31:52.186Z,7.70
2023-03-30T08:34:19.376Z,7.55
2023-03-30T08:36:46.134Z,7.70
2023-03-30T08:39:12.954Z,8.57
2023-03-30T08:41:57.624Z,7.13
2023-03-30T08:44:41.272Z,8.13
2023-03-30T08:47:17.857Z,8.20
2023-03-30T08:50:15.242Z,7.90
2023-03-30T08:52:43.109Z,8.10
2023-03-30T08:55:43.317Z,8.45
2023-03-30T08:58:16.506Z,7.25
2023-03-30T09:01:20.370Z,7.70
2023-03-30T09:03:59.380Z,7.65
2023-03-30T09:06:50.850Z,7.65
2023-03-30T09:09:24.953Z,8.10
2023-03-30T09:12:18.682Z,8.15
2023-03-30T09:14:54.788Z,7.47
2023-03-30T09:17:29.049Z,7.80
2023-03-30T09:20:07.029Z,7.97
2023-03-30T09:22:41.858Z,7.70
2023-03-30T09:25:26.581Z,8.40
2023-03-30T09:28:06.987Z,8.00
2023-03-30T09:30:42.226Z,7.80
2023-03-30T09:33:27.384Z,7.60
2023-03-30T09:36:14.183Z,7.25
2023-03-30T09:38:42.182Z,9.20
2023-03-30T09:41:38.930Z,8.23
2023-03-30T09:44:32.025Z,8.00
2023-03-30T09:47:00.058Z,8.98
2023-03-30T09:49:29.295Z,7.75
2023-03-30T09:52:07.203Z,7.50
2023-03-30T09:54:39.360Z,8.40
2023-03-30T09:57:07.084Z,8.75
2023-03-30T09:59:38.112Z,7.90
2023-03-30T10:02:19.838Z,7.25
2023-03-30T10:04:52.726Z,7.72
2023-03-30T10:07:25.510Z,7.03
2023-03-30T10:09:52.988Z,7.27
2023-03-30T10:12:19.967Z,7.80
2023-03-30T10:14:46.916Z,7.82
2023-03-30T10:17:25.139Z,7.37
2023-03-30T10:20:03.582Z,7.90
2023-03-30T10:22:37.584Z,7.38
2023-03-30T10:25:10.480Z,7.47
2023-03-30T10:27:40.489Z,7.90
2023-03-30T10:30:12.760Z,6.97
2023-03-30T10:32:46.152Z,6.65
2023-03-30T10:35:20.088Z,7.00
2023-03-30T10:37:48.261Z,7.30
2023-03-30T10:40:32.688Z,6.80
2023-03-30T10:43:01.191Z,6.30
2023-03-30T10:45:46.367Z,6.43
2023-03-30T10:48:50.847Z,6.47
2023-03-30T10:51:23.764Z,6.03
2023-03-30T10:54:06.878Z,6.43
2023-03-30T10:57:07.781Z,6.37
2023-03-30T10:59:44.423Z,6.60
2023-03-30T11:02:17.512Z,6.80
2023-03-30T11:04:53.378Z,6.15
2023-03-30T11:07:56.491Z,6.40
2023-03-30T11:10:42.202Z,6.70
2023-03-30T11:13:42.987Z,6.70
2023-03-30T11:16:25.936Z,6.80
2023-03-30T11:19:25.611Z,6.73
2023-03-30T11:22:30.265Z,6.50
2023-03-30T11:25:00.638Z,6.20
2023-03-30T11:27:33.934Z,6.10
2023-03-30T11:30:10.708Z,5.40
2023-03-30T11:33:06.801Z,8.33
2023-03-30T11:35:39.244Z,6.17
2023-03-30T11:38:18.323Z,6.90
2023-03-30T11:40:48.796Z,6.97
2023-03-30T11:43:17.741Z,7.13
2023-03-30T11:46:09.143Z,6.47
2023-03-30T11:49:08.270Z,6.20
2023-03-30T11:52:12.437Z,6.10
2023-03-30T11:55:01.778Z,5.83
2023-03-30T11:57:53.702Z,6.40
2023-03-30T12:00:23.450Z,5.83
2023-03-30T12:03:12.098Z,6.37
2023-03-30T12:05:44.128Z,6.70
2023-03-30T12:08:29.307Z,5.70
2023-03-30T12:11:13.456Z,6.50
2023-03-30T12:13:50.651Z,6.00
2023-03-30T12:16:26.906Z,5.33
2023-03-30T12:19:09.957Z,5.80
2023-03-30T12:21:44.166Z,6.17
2023-03-30T12:24:17.969Z,5.83
2023-03-30T12:26:51.829Z,5.33
2023-03-30T12:32:25.163Z,6.17
2023-03-30T12:34:54.068Z,5.80
2023-03-30T12:37:33.357Z,5.43
2023-03-30T12:40:06.794Z,4.97
2023-03-30T12:42:39.704Z,5.67
2023-03-30T12:45:06.501Z,5.20
2023-03-30T12:47:33.707Z,5.40
2023-03-30T12:50:12.354Z,4.77
2023-03-30T12:52:48.512Z,5.50
2023-03-30T12:55:24.157Z,4.93
2023-03-30T12:57:53.960Z,4.70
2023-03-30T13:00:36.918Z,6.17
2023-03-30T13:03:09.747Z,5.27
2023-03-30T13:05:41.740Z,5.10
2023-03-30T13:08:29.256Z,4.70
2023-03-30T13:11:13.402Z,6.57
2023-03-30T13:13:58.025Z,5.60
2023-03-30T13:17:08.560Z,5.87
2023-03-30T13:19:38.348Z,5.60
2023-03-30T13:22:13.872Z,5.40
2023-03-30T13:25:02.866Z,5.77
2023-03-30T13:27:36.410Z,5.97
2023-03-30T13:30:12.643Z,5.43
2023-03-30T13:33:00.834Z,5.13
2023-03-30T13:35:51.548Z,5.30
2023-03-30T13:38:30.355Z,5.87
2023-03-30T13:41:07.233Z,6.57
2023-03-30T13:43:55.588Z,6.00
2023-03-30T13:46:31.184Z,6.20
2023-03-30T13:49:25.260Z,5.03
2023-03-30T13:51:53.606Z,4.90
2023-03-30T13:54:29.442Z,4.97
2023-03-30T13:57:04.031Z,4.10
2023-03-30T13:59:33.528Z,5.63
2023-03-30T14:02:02.098Z,3.53
2023-03-30T14:04:31.460Z,3.00
2023-03-30T14:06:58.644Z,2.90
2023-03-30T14:09:28.045Z,3.20
2023-03-30T14:11:59.603Z,2.90
2023-03-30T14:14:29.783Z,3.40
2023-03-30T14:16:59.131Z,2.57
2023-03-30T14:19:33.924Z,3.50
2023-03-30T14:22:16.602Z,3.10
2023-03-30T14:25:04.031Z,3.13
2023-03-30T14:27:36.648Z,3.70
2023-03-30T14:30:18.937Z,3.80
2023-03-30T14:32:45.924Z,3.47
2023-03-30T14:35:18.424Z,3.80
2023-03-30T14:37:51.681Z,3.63
2023-03-30T14:40:21.904Z,3.70
2023-03-30T14:42:48.943Z,3.40
2023-03-30T14:45:18.703Z,4.30
2023-03-30T14:47:49.426Z,3.03
2023-03-30T14:50:17.211Z,3.50
2023-03-30T14:52:46.989Z,3.20
2023-03-30T14:55:35.061Z,3.50
2023-03-30T14:58:02.149Z,3.50
2023-03-30T15:00:31.265Z,3.20
2023-03-30T15:02:59.926Z,4.03
2023-03-30T15:05:30.654Z,3.83
2023-03-30T15:07:57.387Z,3.97
2023-03-30T15:10:35.384Z,3.93
2023-03-30T15:13:04.755Z,3.10
2023-03-30T15:15:33.140Z,3.70
2023-03-30T15:18:01.959Z,4.10
2023-03-30T15:20:31.225Z,3.67
2023-03-30T15:22:59.605Z,4.10
2023-03-30T15:25:34.006Z,5.20
2023-03-30T15:28:07.309Z,3.53
2023-03-30T15:30:41.188Z,3.83
2023-03-30T15:33:28.020Z,3.10
2023-03-30T15:35:54.903Z,3.90
2023-03-30T15:38:35.291Z,4.10
2023-03-30T15:41:02.624Z,5.50
2023-03-30T15:43:33.584Z,3.73
2023-03-30T15:46:04.966Z,3.87
2023-03-30T15:48:36.177Z,3.77
2023-03-30T15:51:07.839Z,4.53
2023-03-30T15:53:48.299Z,4.80
2023-03-30T15:56:47.120Z,4.30
2023-03-30T15:59:16.518Z,6.67
2023-03-30T16:02:00.961Z,5.10
2023-03-30T16:04:31.934Z,5.00
2023-03-30T16:06:58.687Z,4.40
2023-03-30T16:09:25.410Z,4.70
2023-03-30T16:11:52.308Z,5.97
2023-03-30T16:14:20.501Z,4.87
2023-03-30T16:16:48.150Z,5.27
2023-03-30T16:19:18.448Z,5.57
2023-03-30T16:21:45.766Z,5.70
2023-03-30T16:24:12.679Z,6.37
2023-03-30T16:26:39.640Z,5.77
2023-03-30T16:29:17.736Z,5.70
2023-03-30T16:31:44.584Z,5.83
2023-03-30T16:34:11.696Z,5.47
2023-03-30T16:36:38.476Z,5.00
2023-03-30T16:39:15.945Z,5.73
2023-03-30T16:41:43.386Z,5.80
2023-03-30T16:44:10.627Z,4.80
2023-03-30T16:46:37.736Z,6.03
2023-03-30T16:49:05.037Z,4.90
2023-03-30T16:51:31.869Z,5.97
2023-03-30T16:53:58.681Z,5.57
2023-03-30T16:56:26.158Z,5.67
2023-03-30T16:58:52.916Z,5.60
2023-03-30T17:01:19.723Z,6.60
2023-03-30T17:03:46.858Z,5.80
2023-03-30T17:06:14.177Z,5.80
2023-03-30T17:08:42.923Z,6.43
2023-03-30T17:11:11.196Z,7.17
2023-03-30T17:13:37.957Z,6.77
2023-03-30T17:16:05.001Z,7.33
2023-03-30T17:18:31.978Z,6.87
2023-03-30T17:21:00.676Z,7.00
2023-03-30T17:23:29.539Z,7.30
2023-03-30T17:25:59.334Z,6.40
2023-03-30T17:28:32.937Z,8.37
2023-03-30T17:31:02.027Z,7.80
2023-03-30T17:33:31.751Z,7.30
2023-03-30T17:36:01.858Z,6.87
2023-03-30T17:38:29.934Z,7.80
2023-03-30T17:40:57.985Z,7.17
2023-03-30T17:43:24.820Z,7.10
2023-03-30T17:45:51.712Z,8.07
2023-03-30T17:48:20.849Z,6.60
2023-03-30T17:50:49.846Z,7.73
2023-03-30T17:53:19.194Z,6.63
2023-03-30T17:55:48.028Z,7.43
2023-03-30T17:58:21.000Z,7.20
2023-03-30T18:00:48.718Z,7.27
2023-03-30T18:03:17.201Z,7.60
2023-03-30T18:05:44.895Z,6.90
2023-03-30T18:08:21.393Z,6.70
2023-03-30T18:10:53.724Z,7.93
2023-03-30T18:13:22.402Z,7.60
2023-03-30T18:15:51.919Z,7.50
2023-03-30T18:18:24.866Z,7.20
2023-03-30T18:20:57.380Z,7.50
2023-03-30T18:23:24.332Z,8.90
2023-03-30T18:25:51.953Z,7.43
2023-03-30T18:28:24.368Z,7.57
2023-03-30T18:30:53.327Z,7.90
2023-03-30T18:33:20.327Z,8.63
2023-03-30T18:35:49.333Z,8.63
2023-03-30T18:38:19.109Z,7.77
2023-03-30T18:40:53.583Z,8.40
2023-03-30T18:43:20.421Z,7.97
2023-03-30T18:45:49.529Z,7.33
2023-03-30T18:48:19.808Z,7.70
2023-03-30T18:50:51.028Z,8.30
2023-03-30T18:53:21.596Z,7.30
2023-03-30T18:55:50.964Z,8.30
2023-03-30T18:58:23.126Z,7.30
2023-03-30T19:00:51.889Z,7.60
2023-03-30T19:03:19.890Z,8.10
2023-03-30T19:05:47.025Z,8.97
2023-03-30T19:08:16.246Z,8.90
2023-03-30T19:10:45.265Z,8.27
2023-03-30T19:13:16.947Z,8.73
2023-03-30T19:15:44.870Z,8.60
2023-03-30T19:18:12.056Z,8.93
2023-03-30T19:20:41.433Z,8.30
2023-03-30T19:23:11.672Z,8.87
2023-03-30T19:25:38.999Z,8.00
2023-03-30T19:28:06.821Z,9.43
2023-03-30T19:30:37.507Z,7.43
2023-03-30T19:33:12.361Z,9.33
2023-03-30T19:35:43.818Z,7.90
2023-03-30T19:38:10.761Z,8.23
2023-03-30T19:40:41.291Z,8.30
2023-03-30T19:43:10.087Z,8.73
2023-03-30T19:45:37.300Z,8.77
2023-03-30T19:48:04.563Z,8.37
2023-03-30T19:50:31.789Z,8.47
2023-03-30T19:52:59.557Z,8.20
2023-03-30T19:55:27.162Z,9.03
2023-03-30T19:57:54.243Z,8.50
2023-03-30T20:00:21.259Z,8.43
2023-03-30T20:02:50.759Z,9.03
2023-03-30T20:05:19.543Z,9.67
2023-03-30T20:07:47.136Z,9.00
2023-03-30T20:10:18.859Z,9.53
2023-03-30T20:12:46.824Z,9.33
2023-03-30T20:15:13.909Z,9.43
2023-03-30T20:17:41.953Z,8.60
2023-03-30T20:20:13.927Z,8.90
2023-03-30T20:22:42.772Z,8.53
2023-03-30T20:25:12.353Z,11.37
2023-03-30T20:27:40.233Z,9.10
2023-03-30T20:30:08.288Z,9.27
2023-03-30T20:32:35.492Z,10.43
2023-03-30T20:35:02.525Z,10.17
2023-03-30T20:37:29.337Z,9.17
2023-03-30T20:40:04.026Z,10.90
2023-03-30T20:42:31.879Z,10.07
2023-03-30T20:44:59.618Z,10.53
2023-03-30T20:47:30.093Z,10.50
2023-03-30T20:49:58.330Z,10.70
2023-03-30T20:52:25.771Z,10.20
2023-03-30T20:54:53.079Z,10.00
2023-03-30T20:57:21.354Z,10.67
2023-03-30T20:59:48.838Z,8.93
2023-03-30T21:02:16.546Z,10.03
2023-03-30T21:04:44.306Z,10.53
2023-03-30T21:07:12.243Z,10.30
2023-03-30T21:09:39.976Z,9.83
2023-03-30T21:12:08.696Z,10.67
2023-03-30T21:14:35.973Z,9.83
2023-03-30T21:17:02.874Z,11.27
2023-03-30T21:19:29.745Z,10.47
2023-03-30T21:21:56.707Z,10.50
2023-03-30T21:24:23.525Z,9.67
2023-03-30T21:26:50.852Z,10.33
2023-03-30T21:29:18.174Z,12.63
2023-03-30T21:31:45.091Z,10.40
2023-03-30T21:34:12.665Z,9.70
2023-03-30T21:36:39.804Z,10.00
2023-03-30T21:39:06.908Z,9.43
2023-03-30T21:41:33.720Z,9.93
2023-03-30T21:44:01.371Z,9.50
2023-03-30T21:46:28.371Z,10.13
2023-03-30T21:48:55.479Z,8.90
2023-03-30T21:51:28.634Z,10.37
2023-03-30T21:53:56.490Z,9.20
2023-03-30T21:56:26.136Z,7.63
2023-03-30T21:58:53.316Z,9.80
2023-03-30T22:01:21.500Z,8.80
2023-03-30T22:03:48.595Z,9.47
2023-03-30T22:06:16.412Z,8.60
2023-03-30T22:08:47.508Z,8.00
2023-03-30T22:11:16.823Z,8.60
2023-03-30T22:13:45.827Z,8.97
2023-03-30T22:16:31.455Z,8.20
2023-03-30T22:18:58.462Z,7.37
2023-03-30T22:21:34.307Z,7.00
2023-03-30T22:24:03.322Z,6.60
2023-03-30T22:26:30.387Z,7.60
2023-03-30T22:28:57.178Z,7.70
2023-03-30T22:31:24.108Z,7.00
2023-03-30T22:33:52.574Z,7.80
2023-03-30T22:36:23.807Z,7.27
2023-03-30T22:38:51.565Z,7.80
2023-03-30T22:41:23.830Z,7.33
2023-03-30T22:43:52.463Z,6.77
2023-03-30T22:46:19.451Z,9.70
2023-03-30T22:48:46.257Z,7.17
2023-03-30T22:51:23.338Z,8.00
2023-03-30T22:53:50.513Z,7.10
2023-03-30T22:56:17.460Z,7.57
2023-03-30T22:58:44.236Z,8.10
2023-03-30T23:01:11.046Z,7.37
2023-03-30T23:03:38.062Z,8.37
2023-03-30T23:06:05.078Z,9.60
2023-03-30T23:08:32.415Z,7.67
2023-03-30T23:11:04.492Z,7.80
2023-03-30T23:13:33.593Z,9.00
2023-03-30T23:16:00.318Z,8.70
2023-03-30T23:18:27.214Z,7.90
2023-03-30T23:20:55.677Z,8.27
2023-03-30T23:23:22.662Z,9.17
2023-03-30T23:25:50.904Z,8.23
2023-03-30T23:28:18.517Z,8.37
2023-03-30T23:30:45.466Z,8.23
2023-03-30T23:33:13.444Z,9.40
2023-03-30T23:35:41.966Z,9.37
2023-03-30T23:38:10.441Z,8.57
2023-03-30T23:40:37.306Z,8.80
2023-03-30T23:43:04.097Z,9.43
2023-03-30T23:45:30.834Z,7.53
2023-03-30T23:47:57.629Z,8.90
2023-03-30T23:50:25.361Z,8.47
2023-03-30T23:52:53.213Z,8.30
2023-03-30T23:55:19.993Z,8.10
2023-03-30T23:57:46.835Z,8.27
